createdAt,value
2023-02-25T00:01:29.739Z,3.80
2023-02-25T00:05:32.143Z,3.90
2023-02-25T00:09:34.124Z,3.63
2023-02-25T00:13:36.099Z,3.63
2023-02-25T00:17:39.965Z,4.00
2023-02-25T00:21:41.909Z,4.47
2023-02-25T00:25:43.905Z,3.63
2023-02-25T00:29:45.705Z,3.50
2023-02-25T00:33:48.500Z,3.80
2023-02-25T00:37:59.163Z,4.03
2023-02-25T00:42:05.876Z,3.77
2023-02-25T00:46:08.995Z,4.03
2023-02-25T00:50:11.836Z,4.43
2023-02-25T00:54:13.673Z,4.20
2023-02-25T00:58:15.499Z,4.97
2023-02-25T01:02:17.315Z,4.53
2023-02-25T01:06:19.404Z,5.00
2023-02-25T01:10:21.454Z,4.80
2023-02-25T01:14:25.032Z,4.30
2023-02-25T01:18:27.535Z,4.07
2023-02-25T01:22:29.301Z,4.33
2023-02-25T01:26:33.797Z,3.90
2023-02-25T01:30:38.714Z,3.70
2023-02-25T01:34:40.622Z,3.90
2023-02-25T01:38:42.394Z,3.93
2023-02-25T01:42:45.949Z,3.37
2023-02-25T01:46:53.288Z,4.00
2023-02-25T01:51:10.174Z,3.30
2023-02-25T01:55:15.267Z,3.70
2023-02-25T01:59:17.766Z,3.10
2023-02-25T02:03:19.523Z,3.07
2023-02-25T02:07:22.203Z,3.63
2023-02-25T02:11:24.209Z,2.93
2023-02-25T02:15:25.960Z,3.00
2023-02-25T02:19:52.451Z,2.47
2023-02-25T02:24:09.794Z,2.47
2023-02-25T02:28:30.225Z,2.30
2023-02-25T02:32:48.654Z,2.20
2023-02-25T02:37:11.517Z,2.63
2023-02-25T02:41:41.393Z,2.20
2023-02-25T02:45:58.867Z,1.90
2023-02-25T02:50:26.143Z,1.70
2023-02-25T02:54:31.482Z,1.70
2023-02-25T02:58:37.337Z,2.20
2023-02-25T03:02:45.680Z,2.07
2023-02-25T03:07:05.682Z,1.43
2023-02-25T03:11:13.678Z,2.00
2023-02-25T03:15:22.656Z,1.30
2023-02-25T03:19:46.703Z,1.60
2023-02-25T03:23:48.504Z,1.60
2023-02-25T03:27:55.892Z,1.70
2023-02-25T03:32:10.383Z,1.63
2023-02-25T03:36:14.184Z,1.60
2023-02-25T03:40:16.375Z,1.17
2023-02-25T03:44:25.922Z,1.93
2023-02-25T03:48:27.737Z,1.43
2023-02-25T03:52:51.401Z,1.00
2023-02-25T03:57:00.943Z,1.50
2023-02-25T04:01:05.728Z,1.50
2023-02-25T04:05:10.084Z,1.30
2023-02-25T04:09:12.029Z,3.70
2023-02-25T04:13:15.934Z,1.40
2023-02-25T04:17:19.361Z,1.30
2023-02-25T04:21:33.549Z,1.30
2023-02-25T04:25:37.484Z,0.90
2023-02-25T04:29:39.227Z,1.20
2023-02-25T04:33:41.359Z,0.90
2023-02-25T04:37:43.410Z,0.50
2023-02-25T04:41:45.332Z,0.47
2023-02-25T04:45:47.174Z,0.50
2023-02-25T04:49:49.216Z,0.33
2023-02-25T04:53:51.058Z,0.40
2023-02-25T04:57:57.226Z,0.40
2023-02-25T05:01:59.106Z,0.77
2023-02-25T05:06:01.183Z,0.90
2023-02-25T05:10:03.110Z,0.73
2023-02-25T05:14:04.892Z,0.73
2023-02-25T05:18:07.070Z,0.97
2023-02-25T05:22:09.164Z,0.80
2023-02-25T05:26:11.885Z,0.80
2023-02-25T05:30:14.680Z,0.80
2023-02-25T05:34:16.801Z,0.83
2023-02-25T05:38:18.657Z,0.87
2023-02-25T05:42:20.617Z,0.80
2023-02-25T05:46:22.847Z,0.80
2023-02-25T05:50:24.889Z,1.10
2023-02-25T05:54:26.647Z,1.00
2023-02-25T05:58:28.400Z,1.10
2023-02-25T06:02:30.306Z,0.90
2023-02-25T06:06:32.420Z,0.80
2023-02-25T06:10:38.422Z,0.90
2023-02-25T06:14:40.182Z,0.70
2023-02-25T06:18:42.027Z,0.80
2023-02-25T06:22:44.019Z,1.30
2023-02-25T06:26:45.798Z,1.33
2023-02-25T06:30:48.494Z,1.60
2023-02-25T06:34:50.294Z,1.77
2023-02-25T06:38:52.125Z,1.87
2023-02-25T06:42:54.032Z,1.80
2023-02-25T06:46:55.946Z,2.10
2023-02-25T06:50:57.786Z,1.40
2023-02-25T06:54:59.827Z,1.63
2023-02-25T06:59:01.625Z,1.70
2023-02-25T07:03:03.826Z,1.90
2023-02-25T07:07:06.155Z,1.73
2023-02-25T07:11:15.483Z,1.60
2023-02-25T07:15:17.449Z,1.67
2023-02-25T07:19:19.343Z,1.70
2023-02-25T07:23:21.612Z,1.50
2023-02-25T07:27:23.459Z,1.30
2023-02-25T07:31:26.401Z,1.40
2023-02-25T07:35:30.724Z,1.57
2023-02-25T07:39:32.582Z,1.90
2023-02-25T07:43:34.488Z,1.33
2023-02-25T07:47:37.420Z,1.57
2023-02-25T07:51:39.380Z,1.40
2023-02-25T07:55:44.843Z,1.23
2023-02-25T07:59:46.853Z,1.47
2023-02-25T08:03:49.212Z,1.47
2023-02-25T08:07:51.985Z,1.30
2023-02-25T08:11:53.924Z,1.50
2023-02-25T08:15:55.838Z,1.53
2023-02-25T08:19:57.763Z,1.53
2023-02-25T08:23:59.806Z,1.90
2023-02-25T08:28:01.902Z,2.17
2023-02-25T08:32:15.209Z,1.80
2023-02-25T08:36:23.363Z,1.80
2023-02-25T08:40:25.207Z,1.60
2023-02-25T08:44:27.046Z,1.60
2023-02-25T08:48:30.622Z,1.40
2023-02-25T08:52:35.069Z,1.27
2023-02-25T08:56:37.228Z,1.53
2023-02-25T09:00:40.446Z,1.30
2023-02-25T09:04:42.522Z,1.50
2023-02-25T09:08:44.391Z,1.07
2023-02-25T09:12:46.544Z,1.30
2023-02-25T09:16:48.834Z,0.90
2023-02-25T09:20:51.369Z,0.73
2023-02-25T09:24:53.776Z,0.77
2023-02-25T09:28:55.831Z,0.83
2023-02-25T09:33:02.062Z,0.70
2023-02-25T09:37:07.526Z,0.83
2023-02-25T09:41:34.585Z,0.50
2023-02-25T09:45:36.764Z,0.60
2023-02-25T09:49:42.031Z,0.80
2023-02-25T09:53:49.713Z,0.80
2023-02-25T09:58:24.011Z,0.77
2023-02-25T10:02:52.316Z,0.90
2023-02-25T10:06:56.184Z,0.70
2023-02-25T10:11:17.633Z,0.73
2023-02-25T10:15:37.676Z,0.80
2023-02-25T10:19:59.191Z,0.80
2023-02-25T10:24:28.426Z,0.70
2023-02-25T10:28:30.491Z,0.63
2023-02-25T10:32:42.551Z,0.50
2023-02-25T10:36:57.986Z,0.60
2023-02-25T10:41:00.102Z,0.63
2023-02-25T10:45:22.030Z,0.47
2023-02-25T10:49:26.467Z,0.80
2023-02-25T10:53:28.495Z,0.73
2023-02-25T10:57:44.857Z,0.80
2023-02-25T11:01:52.719Z,1.00
2023-02-25T11:06:17.812Z,0.90
2023-02-25T11:10:24.327Z,1.17
2023-02-25T11:14:31.234Z,1.00
2023-02-25T11:18:33.495Z,1.00
2023-02-25T11:22:44.616Z,1.17
2023-02-25T11:26:48.540Z,1.10
2023-02-25T11:30:50.682Z,1.40
2023-02-25T11:34:59.874Z,1.37
2023-02-25T11:39:21.077Z,1.60
2023-02-25T11:43:44.978Z,1.53
2023-02-25T11:47:49.439Z,1.53
2023-02-25T11:52:15.831Z,1.60
2023-02-25T11:56:27.212Z,1.40
2023-02-25T12:00:53.823Z,1.40
2023-02-25T12:05:35.229Z,1.47
2023-02-25T12:10:16.038Z,1.50
2023-02-25T12:15:15.164Z,1.40
2023-02-25T12:19:42.934Z,1.50
2023-02-25T12:24:08.868Z,1.27
2023-02-25T12:28:52.471Z,1.20
2023-02-25T12:33:39.499Z,1.03
2023-02-25T12:38:09.868Z,1.43
2023-02-25T12:42:26.810Z,1.20
2023-02-25T12:46:47.613Z,0.97
2023-02-25T12:50:59.759Z,1.00
2023-02-25T12:55:43.166Z,0.90
2023-02-25T13:00:06.114Z,0.80
2023-02-25T13:04:28.791Z,0.77
2023-02-25T13:08:52.484Z,0.67
2023-02-25T13:13:43.567Z,0.70
2023-02-25T13:17:57.005Z,0.70
2023-02-25T13:22:38.297Z,0.60
2023-02-25T13:27:01.888Z,0.60
2023-02-25T13:31:48.374Z,0.70
2023-02-25T13:36:59.242Z,0.70
2023-02-25T13:41:33.590Z,0.70
2023-02-25T13:45:53.037Z,0.70
2023-02-25T13:50:20.957Z,0.70
2023-02-25T13:54:47.004Z,0.53
2023-02-25T13:59:33.999Z,0.50
2023-02-25T14:04:26.351Z,0.60
2023-02-25T14:09:02.116Z,0.70
2023-02-25T14:13:46.044Z,0.60
2023-02-25T14:18:11.092Z,0.50
2023-02-25T14:22:59.416Z,0.50
2023-02-25T14:27:29.777Z,0.50
2023-02-25T14:32:10.540Z,0.20
2023-02-25T14:36:28.061Z,0.27
2023-02-25T14:40:45.948Z,0.50
2023-02-25T14:44:53.771Z,0.50
2023-02-25T14:49:13.912Z,0.63
2023-02-25T14:53:40.482Z,0.60
2023-02-25T14:58:03.470Z,0.50
2023-02-25T15:02:33.285Z,0.30
2023-02-25T15:07:26.830Z,0.40
2023-02-25T15:11:56.246Z,0.40
2023-02-25T15:16:43.698Z,0.70
2023-02-25T15:20:48.709Z,0.50
2023-02-25T15:24:55.113Z,0.50
2023-02-25T15:28:58.301Z,0.80
2023-02-25T15:33:00.108Z,0.80
2023-02-25T15:37:23.913Z,0.50
2023-02-25T15:41:42.991Z,0.70
2023-02-25T15:46:06.445Z,0.50
2023-02-25T15:50:09.451Z,0.90
2023-02-25T15:54:30.516Z,0.60
2023-02-25T15:58:32.395Z,0.40
2023-02-25T16:02:39.496Z,0.60
2023-02-25T16:06:41.508Z,0.80
2023-02-25T16:10:46.308Z,0.60
2023-02-25T16:14:48.242Z,1.10
2023-02-25T16:18:51.245Z,1.10
2023-02-25T16:22:59.730Z,1.00
2023-02-25T16:27:06.361Z,1.10
2023-02-25T16:31:19.321Z,1.33
2023-02-25T16:35:51.780Z,1.20
2023-02-25T16:39:55.377Z,0.93
2023-02-25T16:43:59.650Z,1.30
2023-02-25T16:48:22.999Z,0.80
2023-02-25T16:52:42.778Z,0.90
2023-02-25T16:56:46.602Z,0.80
2023-02-25T17:01:00.262Z,0.80
2023-02-25T17:05:02.177Z,0.70
2023-02-25T17:09:04.089Z,0.90
2023-02-25T17:13:06.102Z,1.20
2023-02-25T17:17:17.040Z,1.10
2023-02-25T17:21:34.376Z,1.37
2023-02-25T17:25:44.905Z,1.00
2023-02-25T17:29:47.126Z,0.97
2023-02-25T17:33:54.134Z,1.13
2023-02-25T17:37:56.707Z,0.70
2023-02-25T17:42:01.308Z,0.80
2023-02-25T17:46:27.806Z,0.60
2023-02-25T17:50:31.999Z,0.50
2023-02-25T17:54:35.946Z,0.87
2023-02-25T17:58:38.052Z,1.17
2023-02-25T18:02:42.161Z,1.10
2023-02-25T18:06:44.962Z,1.27
2023-02-25T18:10:52.108Z,1.50
2023-02-25T18:15:02.411Z,1.70
2023-02-25T18:19:22.253Z,1.73
2023-02-25T18:23:25.569Z,1.80
2023-02-25T18:27:33.889Z,1.80
2023-02-25T18:31:36.877Z,2.30
2023-02-25T18:35:40.725Z,1.80
2023-02-25T18:39:43.488Z,1.40
2023-02-25T18:43:45.515Z,1.20
2023-02-25T18:48:00.436Z,1.30
2023-02-25T18:52:14.044Z,1.40
2023-02-25T18:56:17.160Z,1.87
2023-02-25T19:00:24.007Z,1.60
2023-02-25T19:04:31.506Z,1.50
2023-02-25T19:08:36.751Z,1.60
2023-02-25T19:12:41.642Z,2.00
2023-02-25T19:16:44.012Z,1.50
2023-02-25T19:20:53.868Z,1.63
2023-02-25T19:24:57.208Z,1.00
2023-02-25T19:29:04.359Z,1.07
2023-02-25T19:33:23.211Z,1.00
2023-02-25T19:37:33.904Z,1.40
2023-02-25T19:41:37.203Z,1.17
2023-02-25T19:45:41.487Z,1.00
2023-02-25T19:49:54.802Z,0.87
2023-02-25T19:53:57.357Z,1.17
2023-02-25T19:58:01.253Z,1.20
2023-02-25T20:02:10.959Z,0.90
2023-02-25T20:06:19.637Z,1.10
2023-02-25T20:10:22.444Z,0.90
2023-02-25T20:14:28.097Z,1.10
2023-02-25T20:18:31.890Z,1.00
2023-02-25T20:22:36.955Z,1.20
2023-02-25T20:26:39.529Z,1.70
2023-02-25T20:30:41.812Z,1.30
2023-02-25T20:34:44.266Z,1.40
2023-02-25T20:39:07.353Z,1.20
2023-02-25T20:43:10.543Z,1.23
2023-02-25T20:47:37.744Z,1.00
2023-02-25T20:51:40.085Z,1.77
2023-02-25T20:55:41.986Z,1.40
2023-02-25T20:59:44.031Z,1.93
2023-02-25T21:03:56.751Z,1.50
2023-02-25T21:08:01.756Z,1.90
2023-02-25T21:12:03.829Z,1.50
2023-02-25T21:16:07.021Z,1.80
2023-02-25T21:20:10.803Z,1.70
2023-02-25T21:24:15.120Z,2.20
2023-02-25T21:28:17.658Z,2.10
2023-02-25T21:32:19.575Z,1.97
2023-02-25T21:36:28.736Z,1.80
2023-02-25T21:40:34.549Z,1.90
2023-02-25T21:44:36.502Z,1.93
2023-02-25T21:48:39.643Z,1.80
2023-02-25T21:52:44.308Z,2.00
2023-02-25T21:56:46.212Z,2.03
2023-02-25T22:00:48.137Z,1.90
2023-02-25T22:04:49.948Z,1.60
2023-02-25T22:08:52.186Z,1.73
2023-02-25T22:12:54.267Z,1.77
2023-02-25T22:16:56.170Z,1.30
2023-02-25T22:21:28.635Z,1.10
2023-02-25T22:25:30.423Z,1.60
2023-02-25T22:29:32.631Z,1.77
2023-02-25T22:33:34.407Z,1.70
2023-02-25T22:37:36.303Z,1.50
2023-02-25T22:41:38.768Z,2.00
2023-02-25T22:45:41.305Z,1.73
2023-02-25T22:49:43.350Z,1.90
2023-02-25T22:53:45.252Z,1.93
2023-02-25T22:57:47.552Z,1.87
2023-02-25T23:01:49.480Z,2.23
2023-02-25T23:05:54.317Z,1.37
2023-02-25T23:09:56.474Z,1.50
2023-02-25T23:13:59.950Z,1.40
2023-02-25T23:18:04.888Z,1.50
2023-02-25T23:22:07.097Z,1.30
2023-02-25T23:26:12.542Z,1.30
2023-02-25T23:30:14.674Z,1.70
2023-02-25T23:34:23.548Z,1.23
2023-02-25T23:38:25.507Z,1.20
2023-02-25T23:42:27.405Z,1.10
2023-02-25T23:46:30.435Z,1.10
2023-02-25T23:50:32.692Z,1.27
2023-02-25T23:54:34.648Z,1.10
2023-02-25T23:58:36.637Z,1.20
